Accueil
METAR-TAF:

METAR-TAF

Aéroports :

Maré, Nouvelle-Calédonie

Aérodrome de Maré - La Roche

latitude: 21-28-53S, longitude: 168-02-15E, altitude: 42 m

METAR: absent

Heure: 20:41 (09:41 UTC)

Prévision

Le bulletin a été fait il y a 16 heures et 41 minutes, à 17:00 UTC
Prévision valable du 23 à 18 UTC au 24 à 18 UTC
Vent 8 kt de est
Visibilité 10 km ou plus
Quelques nuages à une hauteur de 1500 ft
Probabilité 40% :
Temporairement
du 23 à 18 UTC au 23 à 22 UTC
Nuages fragmentés à une hauteur de 1000 ft
averses de pluie

TAF: NWWR 231700Z 2318/2418 10008KT 9999 FEW015 PROB40 TEMPO 2318/2322 SHRA BKN010

Observations et prévisions météorologiques de plus de 4000 aéroports (messages METAR et TAF).

Les stations disponibles sont représentées par des disques jaunes et rouges sur la carte.

Passer la souris dessus pour voir le nom de la station.

Cliquer dessus pour voir les observations et prévisions météorologiques.

Pour changer de carte: cliquez sur les boutons verts avec une croix noire pour zoomer, sur le bouton vert avec un tiret pour effectuer un zoom arrière, ou sur les flèches vertes pour les cartes adjacentes.


METAR-TAF: